Time;durP1;ratioP1;P1;durP2;ratioP2;P2;SDS_P1;SDS_P2;PMS_P1;PMS_P2;Temp;Humidity;BMP_temperature;BMP_pressure;BME280_temperature;BME280_humidity;BME280_pressure;Samples;Min_cycle;Max_cycle;Signal;HPM_P1;HPM_P2
2023/01/27 00:00:42;;;;;;;16.90;2.50;;;;;;;-145.18;100.00;46728.75;6216596;23;20016;-76
2023/01/27 00:03:12;;;;;;;25.27;3.20;;;;;;;-145.18;100.00;46736.56;6243206;23;20020;-76
2023/01/27 00:05:38;;;;;;;16.63;2.83;;;;;;;-145.18;100.00;46728.75;6244079;23;20008;-76
2023/01/27 00:08:03;;;;;;;15.30;3.43;;;;;;;-145.18;100.00;46742.44;6243389;23;20949;-76
2023/01/27 00:10:28;;;;;;;25.27;4.60;;;;;;;-145.18;100.00;46728.75;6244089;23;20004;-76
2023/01/27 00:15:38;;;;;;;10.47;2.53;;;;;;;-145.18;100.00;46740.47;6220608;23;20078;-77
2023/01/27 00:18:03;;;;;;;18.30;4.57;;;;;;;-145.18;100.00;46736.56;6243580;23;20213;-76
2023/01/27 00:25:59;;;;;;;13.07;3.23;;;;;;;-145.18;100.00;46736.56;6243366;23;20237;-76
2023/01/27 00:28:25;;;;;;;18.13;2.40;;;;;;;-145.18;100.00;46738.53;6216767;23;20555;-76
2023/01/27 00:30:51;;;;;;;14.73;2.70;;;;;;;-145.18;100.00;46740.47;6243372;23;20320;-76
2023/01/27 00:33:23;;;;;;;9.23;2.47;;;;;;;-145.18;100.00;46734.63;6216224;23;20766;-76
2023/01/27 00:35:49;;;;;;;11.33;3.37;;;;;;;-145.18;100.00;46742.44;6243288;23;20965;-76
2023/01/27 00:38:14;;;;;;;11.50;2.47;;;;;;;-145.18;100.00;46742.44;6242542;23;20230;-76
2023/01/27 00:41:13;;;;;;;11.97;2.53;;;;;;;-145.18;100.00;46742.44;6243312;23;20023;-76
2023/01/27 00:43:25;;;;;;;15.60;2.50;;;;;;;-145.18;100.00;46738.53;6242637;23;20406;-76
2023/01/27 00:45:51;;;;;;;9.37;2.30;;;;;;;-145.18;100.00;46734.63;6242744;23;20031;-76
2023/01/27 00:48:16;;;;;;;12.10;2.13;;;;;;;-145.18;100.00;46736.56;6242567;23;20019;-76
2023/01/27 00:50:42;;;;;;;15.57;2.63;;;;;;;-145.18;100.00;46736.56;6243276;23;20229;-76
2023/01/27 00:53:07;;;;;;;8.43;1.80;;;;;;;-145.18;100.00;46738.53;6242418;23;20028;-76
2023/01/27 00:55:33;;;;;;;17.97;2.47;;;;;;;-145.18;100.00;46734.63;6243166;23;20018;-76
2023/01/27 00:57:58;;;;;;;11.90;2.30;;;;;;;-145.18;100.00;46736.56;6242687;23;20429;-76
2023/01/27 01:00:23;;;;;;;11.60;2.13;;;;;;;-145.18;100.00;46734.63;6242807;23;20012;-76
2023/01/27 01:02:49;;;;;;;12.87;2.70;;;;;;;-145.18;100.00;46726.81;6241982;23;20154;-76
2023/01/27 01:05:14;;;;;;;14.77;2.10;;;;;;;-145.18;100.00;46728.75;6241871;23;20004;-76
2023/01/27 01:07:39;;;;;;;14.63;2.77;;;;;;;-145.18;100.00;46728.75;6242510;23;20010;-76
2023/01/27 01:10:05;;;;;;;15.33;4.03;;;;;;;-145.18;100.00;46724.84;6242387;23;20012;-76
2023/01/27 01:12:31;;;;;;;15.83;3.90;;;;;;;-145.18;100.00;46728.75;6242320;23;20011;-76
2023/01/27 01:14:56;;;;;;;11.13;2.60;;;;;;;-145.18;100.00;46732.66;6242164;23;20087;-76
2023/01/27 01:17:21;;;;;;;13.47;2.93;;;;;;;-145.18;100.00;46726.81;6242055;23;20008;-76
2023/01/27 01:19:47;;;;;;;11.67;2.50;;;;;;;-145.18;100.00;46719.00;6215485;23;20011;-76
2023/01/27 01:22:12;;;;;;;12.73;2.70;;;;;;;-145.18;100.00;46711.19;6241527;23;20090;-76
2023/01/27 01:24:37;;;;;;;10.80;3.37;;;;;;;-145.18;100.00;46717.03;6242287;23;20607;-76
2023/01/27 01:27:03;;;;;;;12.60;2.40;;;;;;;-145.18;100.00;46711.19;6241908;23;20027;-76
2023/01/27 01:29:28;;;;;;;12.97;2.37;;;;;;;-145.18;100.00;46711.19;6242168;23;20004;-76
2023/01/27 01:31:54;;;;;;;15.47;2.97;;;;;;;-145.18;100.00;46711.19;6242358;23;20341;-76
2023/01/27 01:34:19;;;;;;;10.23;3.17;;;;;;;-145.18;100.00;46709.22;6242040;23;20012;-76
2023/01/27 01:36:44;;;;;;;10.57;2.97;;;;;;;-145.18;100.00;46715.09;6215080;23;20008;-76
2023/01/27 01:39:10;;;;;;;18.17;4.00;;;;;;;-145.18;100.00;46709.22;6241776;23;20311;-76
2023/01/27 01:41:35;;;;;;;11.70;3.30;;;;;;;-145.18;100.00;46703.38;6215026;23;20040;-76
2023/01/27 01:44:21;;;;;;;11.17;3.27;;;;;;;-145.18;100.00;46699.47;6242590;23;20004;-76
2023/01/27 01:46:47;;;;;;;9.63;3.03;;;;;;;-145.18;100.00;46695.56;6242044;23;20372;-76
2023/01/27 01:49:14;;;;;;;7.53;3.00;;;;;;;-145.18;100.00;46693.59;6241913;23;20226;-76
2023/01/27 01:51:47;;;;;;;9.07;3.13;;;;;;;-145.18;100.00;46685.78;6241649;23;20333;-76
2023/01/27 01:54:20;;;;;;;15.47;4.17;;;;;;;-145.18;100.00;46687.75;6214742;23;20256;-76
2023/01/27 01:57:14;;;;;;;10.50;3.47;;;;;;;-145.18;100.00;46691.66;6241888;23;20245;-76
2023/01/27 01:59:47;;;;;;;16.00;4.53;;;;;;;-145.18;100.00;46685.78;6221634;23;20343;-76
2023/01/27 02:02:16;;;;;;;10.03;4.10;;;;;;;-145.18;100.00;46695.56;6240826;23;20246;-76
2023/01/27 02:04:49;;;;;;;12.80;4.40;;;;;;;-145.18;100.00;46697.50;6215044;23;20599;-76
2023/01/27 02:07:29;;;;;;;18.13;5.27;;;;;;;-145.18;100.00;46697.50;6241681;23;20695;-76
2023/01/27 02:09:55;;;;;;;15.13;4.90;;;;;;;-145.18;100.00;46699.47;6242126;23;20229;-76
2023/01/27 02:12:21;;;;;;;14.53;5.73;;;;;;;-145.18;100.00;46699.47;6241473;23;20230;-76
2023/01/27 02:14:46;;;;;;;13.70;5.53;;;;;;;-145.18;100.00;46703.38;6241859;23;20305;-76
2023/01/27 02:17:13;;;;;;;18.97;6.67;;;;;;;-145.18;100.00;46701.41;6241510;23;20019;-76
2023/01/27 02:19:56;;;;;;;19.27;6.10;;;;;;;-145.18;100.00;46707.28;6241798;23;20087;-76
2023/01/27 02:22:37;;;;;;;14.17;6.50;;;;;;;-145.18;100.00;46707.28;6241578;23;20230;-76
2023/01/27 02:25:31;;;;;;;20.23;8.63;;;;;;;-145.18;100.00;46717.03;6241809;23;20218;-76
2023/01/27 02:27:56;;;;;;;14.80;6.40;;;;;;;-145.18;100.00;46720.94;6224694;23;20297;-76
2023/01/27 02:30:23;;;;;;;17.73;6.47;;;;;;;-145.18;100.00;46713.13;6242046;23;20699;-76
2023/01/27 02:32:48;;;;;;;21.53;8.13;;;;;;;-145.18;100.00;46711.19;6241774;23;20062;-76
2023/01/27 02:35:19;;;;;;;18.67;7.40;;;;;;;-145.18;100.00;46711.19;6241485;23;20230;-76
2023/01/27 02:37:46;;;;;;;19.77;7.60;;;;;;;-145.18;100.00;46726.81;6241823;23;20424;-76
2023/01/27 02:40:12;;;;;;;19.97;7.73;;;;;;;-145.18;100.00;46709.22;6241529;23;20250;-76
2023/01/27 02:42:38;;;;;;;16.53;7.03;;;;;;;-145.18;100.00;46711.19;6241573;23;20733;-76
2023/01/27 02:45:03;;;;;;;18.90;8.37;;;;;;;-145.18;100.00;46707.28;6241721;23;20233;-76
2023/01/27 02:47:29;;;;;;;20.43;6.83;;;;;;;-145.18;100.00;46705.31;6214431;23;20010;-76
2023/01/27 02:49:54;;;;;;;19.63;7.40;;;;;;;-145.18;100.00;46711.19;6214722;23;20008;-76
2023/01/27 02:52:21;;;;;;;19.70;7.43;;;;;;;-145.18;100.00;46701.41;6214472;23;20051;-76
2023/01/27 02:54:46;;;;;;;16.13;6.77;;;;;;;-145.18;100.00;46703.38;6241736;23;20009;-76
2023/01/27 02:57:11;;;;;;;21.90;7.53;;;;;;;-145.18;100.00;46707.28;6241566;23;20288;-76
2023/01/27 02:59:37;;;;;;;19.53;7.37;;;;;;;-145.18;100.00;46697.50;6242327;23;20066;-76
2023/01/27 03:02:02;;;;;;;20.50;8.03;;;;;;;-145.18;100.00;46699.47;6240024;22;20087;-76
2023/01/27 03:04:28;;;;;;;23.77;8.07;;;;;;;-145.18;100.00;46701.41;6272063;22;20046;-76
2023/01/27 03:06:54;;;;;;;15.37;6.63;;;;;;;-145.18;100.00;46697.50;6273927;22;20792;-76
2023/01/27 03:09:19;;;;;;;15.93;6.67;;;;;;;-145.18;100.00;46687.75;6274348;22;20018;-76
2023/01/27 03:19:56;;;;;;;13.30;6.70;;;;;;;-145.18;100.00;46683.84;6273925;22;20243;-76
2023/01/27 03:22:22;;;;;;;15.47;7.33;;;;;;;-145.18;100.00;46685.78;6274328;22;20260;-76
2023/01/27 03:24:47;;;;;;;13.37;6.73;;;;;;;-145.18;100.00;46685.78;6221903;22;20012;-76
2023/01/27 03:27:12;;;;;;;15.90;7.27;;;;;;;-145.18;100.00;46685.78;6246777;22;20008;-77
2023/01/27 03:29:56;;;;;;;15.70;7.60;;;;;;;-145.18;100.00;46697.50;6274251;22;20015;-74
2023/01/27 03:32:27;;;;;;;14.27;7.67;;;;;;;-145.18;100.00;46697.50;6225030;22;20019;-76
2023/01/27 03:34:56;;;;;;;22.30;8.93;;;;;;;-145.18;100.00;46705.31;6273751;22;20225;-76
2023/01/27 03:48:24;;;;;;;13.20;7.57;;;;;;;-145.18;100.00;46711.19;6273978;22;20271;-76
2023/01/27 03:50:52;;;;;;;16.93;7.77;;;;;;;-145.18;100.00;46715.09;6273982;22;20015;-75
2023/01/27 03:53:19;;;;;;;20.97;8.63;;;;;;;-145.18;100.00;46711.19;6273721;22;20003;-76
2023/01/27 03:55:45;;;;;;;17.53;8.53;;;;;;;-145.18;100.00;46720.94;6273866;22;20720;-75
2023/01/27 03:58:23;;;;;;;21.30;8.43;;;;;;;-145.18;100.00;46726.81;6273913;22;20236;-75
2023/01/27 04:00:54;;;;;;;18.10;8.83;;;;;;;-145.18;100.00;46728.75;6273471;22;20256;-76
2023/01/27 04:08:51;;;;;;;19.53;8.67;;;;;;;-145.18;100.00;46726.81;6273651;22;20228;-75
2023/01/27 04:14:02;;;;;;;20.70;10.47;;;;;;;-145.18;100.00;46734.63;6273275;22;20016;-75
2023/01/27 04:16:29;;;;;;;19.10;9.67;;;;;;;-145.18;100.00;46728.75;6274052;22;20282;-76
2023/01/27 04:18:57;;;;;;;19.40;9.77;;;;;;;-145.18;100.00;46728.75;6273491;22;20290;-75
2023/01/27 04:21:24;;;;;;;21.30;8.40;;;;;;;-145.18;100.00;46732.66;6273873;22;20311;-75
2023/01/27 04:23:50;;;;;;;20.50;9.70;;;;;;;-145.18;100.00;46728.75;6273322;22;20240;-75
2023/01/27 04:26:15;;;;;;;22.33;10.50;;;;;;;-145.18;100.00;46726.81;6246811;22;20229;-75
2023/01/27 04:28:41;;;;;;;22.23;10.90;;;;;;;-145.18;100.00;46726.81;6273840;22;20244;-75
2023/01/27 04:31:06;;;;;;;27.20;10.67;;;;;;;-145.18;100.00;46734.63;6246664;22;20126;-76
2023/01/27 04:33:32;;;;;;;24.63;11.53;;;;;;;-145.18;100.00;46726.81;6246550;22;20008;-75
2023/01/27 04:35:57;;;;;;;19.83;11.53;;;;;;;-145.18;100.00;46724.84;6273570;22;20007;-76
2023/01/27 04:38:23;;;;;;;21.87;10.60;;;;;;;-145.18;100.00;46726.81;6246048;22;20011;-76
2023/01/27 04:40:48;;;;;;;22.90;11.37;;;;;;;-145.18;100.00;46728.75;6273410;22;20402;-76
2023/01/27 04:43:13;;;;;;;20.00;10.87;;;;;;;-145.18;100.00;46722.91;6273547;22;20015;-76
2023/01/27 04:45:39;;;;;;;23.80;11.07;;;;;;;-145.18;100.00;46724.84;6246662;22;20050;-75
2023/01/27 04:48:07;;;;;;;22.23;9.77;;;;;;;-145.18;100.00;46713.13;6272924;22;20004;-75
2023/01/27 04:50:33;;;;;;;26.57;12.77;;;;;;;-145.18;100.00;46711.19;6246496;22;20448;-76
2023/01/27 04:52:58;;;;;;;19.40;11.23;;;;;;;-145.18;100.00;46705.31;6245541;22;20244;-75
2023/01/27 04:55:24;;;;;;;23.53;10.90;;;;;;;-145.18;100.00;46707.28;6273756;22;20031;-76
2023/01/27 04:57:49;;;;;;;23.60;11.53;;;;;;;-145.18;100.00;46697.50;6273160;22;20030;-76
2023/01/27 05:00:15;;;;;;;22.83;11.60;;;;;;;-145.18;100.00;46697.50;6273431;22;20301;-76
2023/01/27 05:02:40;;;;;;;23.30;10.60;;;;;;;-145.18;100.00;46705.31;6245609;22;20122;-76
2023/01/27 05:05:06;;;;;;;19.17;11.60;;;;;;;-145.18;100.00;46693.59;6272914;22;20436;-75
2023/01/27 05:07:31;;;;;;;25.60;11.13;;;;;;;-145.18;100.00;46691.66;6273523;22;20012;-75
2023/01/27 05:09:57;;;;;;;19.20;10.80;;;;;;;-145.18;100.00;46679.94;6273300;22;20130;-75
2023/01/27 05:12:23;;;;;;;19.63;11.47;;;;;;;-145.18;100.00;46683.84;6273416;22;20359;-76
2023/01/27 05:14:48;;;;;;;17.40;10.60;;;;;;;-145.18;100.00;46668.22;6273269;22;20003;-76
2023/01/27 05:17:13;;;;;;;19.87;10.90;;;;;;;-145.18;100.00;46662.34;6273116;22;20013;-76
2023/01/27 05:19:39;;;;;;;20.47;11.33;;;;;;;-145.18;100.00;46660.41;6273549;22;20337;-75
2023/01/27 05:22:04;;;;;;;18.53;10.93;;;;;;;-145.18;100.00;46660.41;6272404;22;20022;-75
2023/01/27 05:24:30;;;;;;;18.27;10.00;;;;;;;-145.18;100.00;46658.44;6273187;22;20498;-76
2023/01/27 05:26:56;;;;;;;18.97;10.93;;;;;;;-145.18;100.00;46650.63;6273047;22;20011;-76
2023/01/27 05:29:22;;;;;;;18.43;11.20;;;;;;;-145.18;100.00;46646.72;6273127;22;20030;-76
2023/01/27 05:31:47;;;;;;;19.10;9.77;;;;;;;-145.18;100.00;46646.72;6269642;22;20561;-76
2023/01/27 05:34:12;;;;;;;16.93;9.57;;;;;;;-145.18;100.00;46642.81;6244832;22;20377;-75
2023/01/27 05:36:38;;;;;;;17.87;9.63;;;;;;;-145.18;100.00;46660.41;6272885;22;20008;-75
2023/01/27 05:39:03;;;;;;;18.37;9.53;;;;;;;-145.18;100.00;46660.41;6272616;22;20033;-75
2023/01/27 05:41:30;;;;;;;17.13;9.90;;;;;;;-145.18;100.00;46660.41;6273128;22;20007;-75
2023/01/27 05:43:55;;;;;;;16.93;9.30;;;;;;;-145.18;100.00;46660.41;6271188;22;20027;-75
2023/01/27 05:46:27;;;;;;;16.03;9.43;;;;;;;-145.18;100.00;46660.41;6242367;22;20268;-75
2023/01/27 05:48:57;;;;;;;19.03;10.07;;;;;;;-145.18;100.00;46660.41;6270390;22;20008;-75
2023/01/27 05:51:25;;;;;;;15.30;8.33;;;;;;;-145.18;100.00;46660.41;6271445;22;20217;-76
2023/01/27 05:53:51;;;;;;;13.70;7.50;;;;;;;-145.18;100.00;46660.41;6271389;22;20681;-75
2023/01/27 05:56:18;;;;;;;12.50;7.67;;;;;;;-145.18;100.00;46660.41;6271851;22;20226;-76
2023/01/27 05:58:44;;;;;;;13.70;8.10;;;;;;;-145.18;100.00;46660.41;6271617;22;20227;-76
2023/01/27 06:01:18;;;;;;;12.47;7.93;;;;;;;-145.18;100.00;46660.41;6271301;22;20255;-76
2023/01/27 06:03:45;;;;;;;11.73;7.13;;;;;;;-145.18;100.00;46660.41;6271589;22;20747;-76
2023/01/27 06:06:12;;;;;;;10.00;6.47;;;;;;;-145.18;100.00;46642.81;6272828;22;20252;-76
2023/01/27 06:08:38;;;;;;;10.27;6.57;;;;;;;-145.18;100.00;46635.00;6271748;22;20325;-76
2023/01/27 06:11:05;;;;;;;10.90;6.67;;;;;;;-145.18;100.00;46644.78;6271958;22;20320;-75
2023/01/27 06:13:31;;;;;;;9.97;6.70;;;;;;;-145.18;100.00;46648.69;6272874;22;20225;-76
2023/01/27 06:15:56;;;;;;;11.43;6.83;;;;;;;-145.18;100.00;46648.69;6272881;22;20322;-76
2023/01/27 06:18:22;;;;;;;9.13;5.90;;;;;;;-145.18;100.00;46650.63;6272876;22;20048;-76
2023/01/27 06:20:48;;;;;;;12.20;6.80;;;;;;;-145.18;100.00;46650.63;6271965;22;20102;-76
2023/01/27 06:23:15;;;;;;;7.07;5.20;;;;;;;-145.18;100.00;46656.50;6245887;22;20319;-76
2023/01/27 06:25:44;;;;;;;12.10;5.97;;;;;;;-145.18;100.00;46662.34;6264205;22;20010;-76
2023/01/27 06:28:10;;;;;;;10.30;6.03;;;;;;;-145.18;100.00;46664.31;6271618;22;20678;-76
2023/01/27 06:30:37;;;;;;;8.97;5.93;;;;;;;-145.18;100.00;46654.53;6271755;22;20237;-76
2023/01/27 06:33:04;;;;;;;10.47;5.97;;;;;;;-145.18;100.00;46658.44;6265021;22;20237;-76
2023/01/27 06:35:30;;;;;;;7.93;5.10;;;;;;;-145.18;100.00;46658.44;6274688;22;20235;-76
2023/01/27 06:37:59;;;;;;;8.23;5.23;;;;;;;-145.18;100.00;46656.50;6247088;22;20229;-76
2023/01/27 06:40:26;;;;;;;9.70;5.70;;;;;;;-145.18;100.00;46660.41;6274331;22;20236;-76
2023/01/27 06:42:51;;;;;;;8.63;5.53;;;;;;;-145.18;100.00;46668.22;6273998;22;20287;-76
2023/01/27 06:45:17;;;;;;;9.80;5.37;;;;;;;-145.18;100.00;46658.44;6273895;22;20233;-76
2023/01/27 06:47:42;;;;;;;8.10;5.17;;;;;;;-145.18;100.00;46668.22;6246861;22;20015;-75
2023/01/27 06:50:09;;;;;;;8.13;5.40;;;;;;;-145.18;100.00;46664.31;6274389;22;20517;-76
2023/01/27 06:52:35;;;;;;;7.17;5.10;;;;;;;-145.18;100.00;46664.31;6273981;22;20043;-76
2023/01/27 06:55:02;;;;;;;9.77;4.80;;;;;;;-145.18;100.00;46672.13;6274337;22;20690;-76
2023/01/27 06:57:27;;;;;;;7.00;5.17;;;;;;;-145.18;100.00;46676.03;6221478;22;20225;-75
2023/01/27 06:59:53;;;;;;;8.60;5.27;;;;;;;-145.18;100.00;46674.06;6273394;22;20230;-76
2023/01/27 07:02:18;;;;;;;9.17;5.67;;;;;;;-145.18;100.00;46672.13;6274128;22;20019;-76
2023/01/27 07:04:44;;;;;;;9.63;4.33;;;;;;;-145.18;100.00;46672.13;6274211;22;20429;-76
2023/01/27 07:07:09;;;;;;;8.23;5.10;;;;;;;-145.18;100.00;46676.03;6274404;22;20035;-76
2023/01/27 07:09:34;;;;;;;6.43;4.70;;;;;;;-145.18;100.00;46676.03;6274096;22;20007;-76
2023/01/27 07:12:00;;;;;;;6.77;4.20;;;;;;;-145.18;100.00;46670.16;6273667;22;20417;-76
2023/01/27 07:14:25;;;;;;;7.57;4.87;;;;;;;-145.18;100.00;46674.06;6274504;22;20074;-76
2023/01/27 07:16:50;;;;;;;8.00;4.93;;;;;;;-145.18;100.00;46672.13;6272660;22;20031;-76
2023/01/27 07:19:16;;;;;;;7.37;4.63;;;;;;;-145.18;100.00;46674.06;6269271;22;20235;-76
2023/01/27 07:21:42;;;;;;;6.90;4.47;;;;;;;-145.18;100.00;46660.41;6269502;22;20019;-76
2023/01/27 07:24:09;;;;;;;7.57;5.00;;;;;;;-145.18;100.00;46670.16;6273574;22;19999;-76
2023/01/27 07:26:35;;;;;;;7.73;5.23;;;;;;;-145.18;100.00;46674.06;6272988;22;20000;-76
2023/01/27 07:29:00;;;;;;;8.97;4.97;;;;;;;-145.18;100.00;46674.06;6272464;22;20244;-76
2023/01/27 07:31:26;;;;;;;7.90;4.77;;;;;;;-145.18;100.00;46681.88;6273465;22;20011;-76
2023/01/27 07:33:52;;;;;;;9.10;5.17;;;;;;;-145.18;100.00;46679.94;6273534;22;20498;-76
2023/01/27 07:36:18;;;;;;;10.30;5.37;;;;;;;-145.18;100.00;46687.75;6274176;22;20008;-76
2023/01/27 07:38:43;;;;;;;9.13;4.70;;;;;;;-145.18;100.00;46683.84;6246844;22;20547;-76
2023/01/27 07:41:10;;;;;;;6.90;4.63;;;;;;;-145.18;100.00;46679.94;6274108;22;20441;-76
2023/01/27 07:43:35;;;;;;;8.13;4.97;;;;;;;-145.18;100.00;46676.03;6273130;22;20031;-76
2023/01/27 07:46:01;;;;;;;8.10;4.80;;;;;;;-145.18;100.00;46681.88;6273098;22;20247;-76
2023/01/27 07:48:26;;;;;;;7.20;5.03;;;;;;;-145.18;100.00;46674.06;6273899;22;20012;-76
2023/01/27 07:50:51;;;;;;;8.97;5.23;;;;;;;-145.18;100.00;46672.13;6273510;22;20437;-76
2023/01/27 07:53:17;;;;;;;7.33;5.00;;;;;;;-145.18;100.00;46668.22;6246940;22;20012;-76
2023/01/27 07:55:42;;;;;;;6.90;4.63;;;;;;;-145.18;100.00;46666.25;6273761;22;20000;-76
2023/01/27 07:58:08;;;;;;;7.23;5.00;;;;;;;-145.18;100.00;46672.13;6273115;22;20015;-76
2023/01/27 08:00:33;;;;;;;7.63;4.60;;;;;;;-145.18;100.00;46662.34;6273390;22;20012;-76
2023/01/27 08:03:00;;;;;;;8.77;4.60;;;;;;;-145.18;100.00;46658.44;6273033;22;20093;-76
2023/01/27 08:05:27;;;;;;;5.03;3.93;;;;;;;-145.18;100.00;46660.41;6273849;22;20169;-76
2023/01/27 08:07:54;;;;;;;10.80;5.40;;;;;;;-145.18;100.00;46664.31;6273160;22;20224;-76
2023/01/27 08:10:19;;;;;;;8.53;4.40;;;;;;;-145.18;100.00;46660.41;6273643;22;20609;-76
2023/01/27 08:12:45;;;;;;;7.47;4.33;;;;;;;-145.18;100.00;46668.22;6273099;22;20359;-76
2023/01/27 08:15:11;;;;;;;6.43;4.00;;;;;;;-145.18;100.00;46666.25;6273463;22;20008;-76
2023/01/27 08:17:36;;;;;;;6.77;4.27;;;;;;;-145.18;100.00;46666.25;6273483;22;20039;-75
2023/01/27 08:20:02;;;;;;;7.53;4.33;;;;;;;-145.18;100.00;46679.94;6273053;22;20009;-76
2023/01/27 08:22:28;;;;;;;4.90;3.67;;;;;;;-145.18;100.00;46666.25;6273900;22;20014;-75
2023/01/27 08:24:54;;;;;;;5.43;3.63;;;;;;;-145.18;100.00;46676.03;6273262;22;20228;-76
2023/01/27 08:27:19;;;;;;;8.13;4.17;;;;;;;-145.18;100.00;46668.22;6273594;22;20229;-76
2023/01/27 08:29:45;;;;;;;10.30;4.73;;;;;;;-145.18;100.00;46683.84;6272369;22;20012;-76
2023/01/27 08:32:10;;;;;;;8.20;4.40;;;;;;;-145.18;100.00;46687.75;6246524;22;20016;-76
2023/01/27 08:34:37;;;;;;;7.93;4.23;;;;;;;-145.18;100.00;46699.47;6273388;22;20321;-76
2023/01/27 08:37:03;;;;;;;24.87;9.30;;;;;;;-145.18;100.00;46699.47;6273150;22;20004;-76
2023/01/27 08:39:28;;;;;;;7.37;3.90;;;;;;;-145.18;100.00;46705.31;6273058;22;20229;-76
2023/01/27 08:41:54;;;;;;;12.03;5.30;;;;;;;-145.18;100.00;46695.56;6272869;22;20008;-75
2023/01/27 08:44:19;;;;;;;9.97;5.40;;;;;;;-145.18;100.00;46705.31;6272892;22;20030;-75
2023/01/27 08:46:45;;;;;;;15.67;6.83;;;;;;;-145.18;100.00;46707.28;6273533;22;20506;-76
2023/01/27 08:49:12;;;;;;;8.03;4.13;;;;;;;-145.18;100.00;46713.13;6273095;22;20015;-76
2023/01/27 08:51:38;;;;;;;7.27;4.37;;;;;;;-145.18;100.00;46719.00;6246950;22;20053;-76
2023/01/27 08:54:04;;;;;;;6.63;4.20;;;;;;;-145.18;100.00;46713.13;6272851;22;20233;-76
2023/01/27 08:56:29;;;;;;;5.43;3.70;;;;;;;-145.18;100.00;46719.00;6272767;22;20057;-76
2023/01/27 08:58:55;;;;;;;6.73;4.20;;;;;;;-145.18;100.00;46722.91;6272305;22;20433;-76
2023/01/27 09:01:21;;;;;;;6.93;3.90;;;;;;;-145.18;100.00;46720.94;6245837;22;20012;-76
2023/01/27 09:03:47;;;;;;;8.07;3.63;;;;;;;-145.18;100.00;46722.91;6272233;22;20468;-75
2023/01/27 09:06:13;;;;;;;5.10;3.57;;;;;;;-145.18;100.00;46722.91;6273173;22;20004;-76
2023/01/27 09:08:39;;;;;;;6.07;2.90;;;;;;;-145.18;100.00;46732.66;6272883;22;20237;-76
2023/01/27 09:11:15;;;;;;;6.07;3.23;;;;;;;-145.18;100.00;46744.38;6272610;22;21089;-76
2023/01/27 09:13:40;;;;;;;6.35;2.92;;;;;;;-145.18;100.00;46740.47;6272526;22;20236;-76
2023/01/27 09:16:07;;;;;;;4.50;2.70;;;;;;;-145.18;100.00;46748.28;6272857;22;20349;-76
2023/01/27 09:18:33;;;;;;;4.00;2.60;;;;;;;-145.18;100.00;46760.00;6272769;22;20010;-76
2023/01/27 09:21:05;;;;;;;4.83;2.50;;;;;;;-145.18;100.00;46769.78;6272682;22;20351;-76
2023/01/27 09:23:34;;;;;;;3.97;2.80;;;;;;;-145.18;100.00;46779.56;6272893;22;20231;-76
2023/01/27 09:25:59;;;;;;;3.03;2.37;;;;;;;-145.18;100.00;46803.00;6272449;22;20244;-76
2023/01/27 09:28:25;;;;;;;3.10;2.40;;;;;;;-145.18;100.00;46808.84;6271955;22;20296;-76
2023/01/27 09:30:50;;;;;;;4.20;2.40;;;;;;;-145.18;100.00;46818.63;6272787;22;20072;-76
2023/01/27 09:33:15;;;;;;;3.20;2.33;;;;;;;-145.18;100.00;46812.75;6272753;22;20019;-76
2023/01/27 09:35:46;;;;;;;5.07;2.30;;;;;;;-145.18;100.00;46812.75;6272975;22;20440;-76
2023/01/27 09:38:17;;;;;;;7.30;3.37;;;;;;;-145.18;100.00;46828.38;6272324;22;20003;-76
2023/01/27 09:40:57;;;;;;;3.73;2.30;;;;;;;-145.18;100.00;46836.19;6272385;22;20256;-76
2023/01/27 09:43:45;;;;;;;6.83;2.37;;;;;;;-145.18;100.00;46838.16;6272216;22;20240;-76
2023/01/27 09:46:32;;;;;;;4.73;2.13;;;;;;;-145.18;100.00;46834.25;6271612;22;20228;-76
2023/01/27 09:49:31;;;;;;;5.30;2.10;;;;;;;-145.18;100.00;46842.06;6272138;22;20719;-76
2023/01/27 09:52:34;;;;;;;7.83;2.70;;;;;;;-145.18;100.00;46847.91;6272438;22;20241;-75
2023/01/27 09:55:37;;;;;;;3.90;2.50;;;;;;;-145.18;100.00;46844.00;6272167;22;20220;-76
2023/01/27 09:58:21;;;;;;;6.70;2.50;;;;;;;-145.18;100.00;46847.91;6271472;22;20224;-76
2023/01/27 10:01:00;;;;;;;3.97;2.50;;;;;;;-145.18;100.00;46828.38;6272400;22;20256;-76
2023/01/27 10:03:34;;;;;;;5.63;2.20;;;;;;;-145.18;100.00;46824.47;6271963;22;20253;-76
2023/01/27 10:06:27;;;;;;;3.80;2.50;;;;;;;-145.18;100.00;46830.34;6271982;22;20255;-76
2023/01/27 10:09:08;;;;;;;3.57;2.13;;;;;;;-145.18;100.00;46836.19;6272647;22;20221;-76
2023/01/27 10:11:51;;;;;;;4.27;2.60;;;;;;;-145.18;100.00;46822.53;6275113;22;20295;-76
2023/01/27 10:14:26;;;;;;;5.73;2.50;;;;;;;-145.18;100.00;46832.28;6274245;22;20225;-76
2023/01/27 10:16:56;;;;;;;6.40;2.23;;;;;;;-145.18;100.00;46820.56;6247546;22;20239;-76
2023/01/27 10:19:44;;;;;;;6.50;2.60;;;;;;;-145.18;100.00;46822.53;6274440;22;20213;-76
2023/01/27 10:22:25;;;;;;;4.40;2.50;;;;;;;-145.18;100.00;46830.34;6273304;22;20252;-76
2023/01/27 10:25:07;;;;;;;5.07;2.53;;;;;;;-145.18;100.00;46814.72;6274391;22;20696;-76
2023/01/27 10:27:37;;;;;;;6.17;2.63;;;;;;;-145.18;100.00;46797.13;6274475;22;20236;-76
2023/01/27 10:30:19;;;;;;;4.20;2.73;;;;;;;-145.18;100.00;46785.41;6274144;22;20240;-76
2023/01/27 10:33:11;;;;;;;5.67;2.70;;;;;;;-145.18;100.00;46789.31;6274841;22;20244;-76
2023/01/27 10:35:44;;;;;;;6.00;3.33;;;;;;;-145.18;100.00;46785.41;6274030;22;20984;-76
2023/01/27 10:38:16;;;;;;;5.90;3.00;;;;;;;-145.18;100.00;46767.84;6274358;22;20306;-76
2023/01/27 10:40:51;;;;;;;6.17;2.57;;;;;;;-145.18;100.00;46773.69;6272024;22;20236;-76
2023/01/27 10:43:46;;;;;;;7.30;3.15;;;;;;;-145.18;100.00;46777.59;6273638;22;20256;-76
2023/01/27 10:46:38;;;;;;;10.10;2.80;;;;;;;-145.18;100.00;46775.66;6267750;22;20309;-76
2023/01/27 10:49:12;;;;;;;6.37;2.80;;;;;;;-145.18;100.00;46777.59;6274053;22;20261;-76
2023/01/27 10:51:48;;;;;;;5.47;2.70;;;;;;;-145.18;100.00;46789.31;6274431;22;20937;-76
2023/01/27 10:54:30;;;;;;;4.57;2.50;;;;;;;-145.18;100.00;46771.75;6273345;22;20232;-76
2023/01/27 10:57:01;;;;;;;8.00;3.00;;;;;;;-145.18;100.00;46773.69;6274335;22;20267;-76
2023/01/27 10:59:46;;;;;;;7.73;3.67;;;;;;;-145.18;100.00;46760.00;6272920;22;20229;-76
2023/01/27 11:02:23;;;;;;;6.17;3.03;;;;;;;-145.18;100.00;46748.28;6274179;22;20261;-76
2023/01/27 11:04:53;;;;;;;6.00;3.00;;;;;;;-145.18;100.00;46750.25;6273892;22;20268;-76
2023/01/27 11:07:21;;;;;;;5.90;3.10;;;;;;;-145.18;100.00;46740.47;6273188;22;20225;-76
2023/01/27 11:10:00;;;;;;;6.43;3.20;;;;;;;-145.18;100.00;46730.72;6274270;22;20697;-76
2023/01/27 11:12:34;;;;;;;4.27;3.20;;;;;;;-145.18;100.00;46730.72;6274924;22;20267;-76
2023/01/27 11:15:09;;;;;;;6.63;3.37;;;;;;;-145.18;100.00;46719.00;6246573;22;20604;-76
2023/01/27 11:17:45;;;;;;;4.35;2.83;;;;;;;-145.18;100.00;46720.94;6274640;22;20228;-76
2023/01/27 11:20:19;;;;;;;7.60;3.23;;;;;;;-145.18;100.00;46724.84;6272964;22;20452;-76
2023/01/27 11:22:57;;;;;;;5.63;3.37;;;;;;;-145.18;100.00;46713.13;6274571;22;20227;-76
2023/01/27 11:25:28;;;;;;;7.47;3.30;;;;;;;-145.18;100.00;46726.81;6274154;22;20304;-76
2023/01/27 11:28:02;;;;;;;5.90;2.77;;;;;;;-145.18;100.00;46719.00;6274208;22;20546;-76
2023/01/27 11:30:54;;;;;;;4.93;3.83;;;;;;;-145.18;100.00;46711.19;6273948;22;20673;-76
2023/01/27 11:33:23;;;;;;;8.03;3.53;;;;;;;-145.18;100.00;46715.09;6274162;22;20233;-76
2023/01/27 11:35:49;;;;;;;6.27;3.47;;;;;;;-145.18;100.00;46719.00;6246627;22;20245;-76
2023/01/27 11:38:19;;;;;;;6.67;3.37;;;;;;;-145.18;100.00;46732.66;6274232;22;20236;-76
2023/01/27 11:40:45;;;;;;;5.50;3.03;;;;;;;-145.18;100.00;46722.91;6274026;22;21044;-77
2023/01/27 11:43:22;;;;;;;5.33;3.30;;;;;;;-145.18;100.00;46719.00;6273560;22;20291;-76
2023/01/27 11:45:51;;;;;;;4.63;3.43;;;;;;;-145.18;100.00;46726.81;6273578;22;20233;-76
2023/01/27 11:48:18;;;;;;;5.60;3.30;;;;;;;-145.18;100.00;46734.63;6273940;22;20243;-76